^^
Station Historical Data
Daily Summary for January 24, 2017 Units:  Both    English   Metric
« Previous Day
Next Day »
Daily Weekly Monthly Yearly Custom
  High: Low: Average:
Temperature: 84.2 °F /  29 °C 63.7 °F /  17.6 °C 69.6 °F /  20.9 °C
Dew Point: 61.0 °F /  16.1 °C 55.2 °F /  12.9 °C 58.6 °F /  14.8 °C
Humidity: 87% 41% 70%
Wind Speed: 14.1mph /  22.7km/h - 2.2mph /  3.5km/h
Wind Gust: 16.0mph /  25.7km/h - -
Wind- - SSE
Pressure: 29.78 in /  1008.4 hPa 29.62 in /  1002.9 hPa -
Precipitation: 0.14 in /  3.56 mm    
Historical Graphs
 
 
Tabular Data for January 24, 2017
Time Temperature Dew Point Pressure Wind Wind Speed Wind Gust Humidity Rainfall Rate (Hourly) solar Conditions
00:00 71.8 °F /  22.1 °C 55.2 °F /  12.9 °C 29.70in /  1005.6hPa SW 2.0mph /  3.2km/h 7.0mph /  11.3km/h 56% 0.00in /  0mm 0.0 W/m2
00:06 72.0 °F /  22.2 °C 55.4 °F /  13 °C 29.70in /  1005.6hPa Calm     56% 0.00in /  0mm 0.0 W/m2
00:12 72.0 °F /  22.2 °C 55.4 °F /  13 °C 29.70in /  1005.6hPa Calm     56% 0.00in /  0mm 0.0 W/m2
00:18 72.0 °F /  22.2 °C 55.4 °F /  13 °C 29.70in /  1005.6hPa Calm   1.0mph /  1.6km/h 56% 0.00in /  0mm 0.0 W/m2
00:25 72.0 °F /  22.2 °C 55.4 °F /  13 °C 29.70in /  1005.6hPa Calm     56% 0.00in /  0mm 0.0 W/m2
00:31 72.0 °F /  22.2 °C 55.4 °F /  13 °C 29.70in /  1005.6hPa Calm     56% 0.00in /  0mm 0.0 W/m2
00:37 72.0 °F /  22.2 °C 55.4 °F /  13 °C 29.70in /  1005.6hPa Calm     56% 0.00in /  0mm 0.0 W/m2
00:43 71.8 °F /  22.1 °C 55.8 °F /  13.2 °C 29.69in /  1005.3hPa Calm   1.0mph /  1.6km/h 57% 0.00in /  0mm 0.0 W/m2
00:49 71.8 °F /  22.1 °C 55.8 °F /  13.2 °C 29.69in /  1005.3hPa ESE 0.9mph /  1.4km/h 3.0mph /  4.8km/h 57% 0.00in /  0mm 0.0 W/m2
00:55 71.6 °F /  22 °C 55.6 °F /  13.1 °C 29.69in /  1005.3hPa Calm   1.0mph /  1.6km/h 57% 0.00in /  0mm 0.0 W/m2
01:01 71.4 °F /  21.9 °C 55.4 °F /  13 °C 29.69in /  1005.3hPa Calm   2.0mph /  3.2km/h 57% 0.00in /  0mm 0.0 W/m2
01:07 71.4 °F /  21.9 °C 55.4 °F /  13 °C 29.69in /  1005.3hPa NNE 2.0mph /  3.2km/h 4.0mph /  6.4km/h 57% 0.00in /  0mm 0.0 W/m2
01:14 71.2 °F /  21.8 °C 55.8 °F /  13.2 °C 29.68in /  1005hPa Calm   3.0mph /  4.8km/h 58% 0.00in /  0mm 0.0 W/m2
01:20 71.4 °F /  21.9 °C 55.9 °F /  13.3 °C 29.68in /  1005hPa Calm   4.0mph /  6.4km/h 58% 0.00in /  0mm 0.0 W/m2
01:26 71.4 °F /  21.9 °C 55.9 °F /  13.3 °C 29.68in /  1005hPa Calm   2.0mph /  3.2km/h 58% 0.00in /  0mm 0.0 W/m2
01:32 71.4 °F /  21.9 °C 55.9 °F /  13.3 °C 29.68in /  1005hPa Calm   2.0mph /  3.2km/h 58% 0.00in /  0mm 0.0 W/m2
01:38 71.4 °F /  21.9 °C 55.9 °F /  13.3 °C 29.68in /  1005hPa Calm   1.0mph /  1.6km/h 58% 0.00in /  0mm 0.0 W/m2
01:44 71.2 °F /  21.8 °C 56.1 °F /  13.4 °C 29.68in /  1005hPa Calm   1.0mph /  1.6km/h 59% 0.00in /  0mm 0.0 W/m2
01:50 71.4 °F /  21.9 °C 56.3 °F /  13.5 °C 29.68in /  1005hPa Calm   1.0mph /  1.6km/h 59% 0.00in /  0mm 0.0 W/m2
01:57 71.4 °F /  21.9 °C 56.3 °F /  13.5 °C 29.68in /  1005hPa Calm   3.0mph /  4.8km/h 59% 0.00in /  0mm 0.0 W/m2
02:03 71.4 °F /  21.9 °C 56.3 °F /  13.5 °C 29.68in /  1005hPa North 2.0mph /  3.2km/h 3.0mph /  4.8km/h 59% 0.00in /  0mm 0.0 W/m2
02:09 71.4 °F /  21.9 °C 56.3 °F /  13.5 °C 29.68in /  1005hPa North 0.9mph /  1.4km/h 4.0mph /  6.4km/h 59% 0.00in /  0mm 0.0 W/m2
02:15 71.4 °F /  21.9 °C 56.3 °F /  13.5 °C 29.68in /  1005hPa NE 0.9mph /  1.4km/h 4.0mph /  6.4km/h 59% 0.00in /  0mm 0.0 W/m2
02:21 71.6 °F /  22 °C 56.5 °F /  13.6 °C 29.68in /  1005hPa NE 2.0mph /  3.2km/h 6.0mph /  9.7km/h 59% 0.00in /  0mm 0.0 W/m2
02:27 71.4 °F /  21.9 °C 56.3 °F /  13.5 °C 29.68in /  1005hPa NNE 0.9mph /  1.4km/h 4.0mph /  6.4km/h 59% 0.00in /  0mm 0.0 W/m2
02:33 71.6 °F /  22 °C 56.5 °F /  13.6 °C 29.68in /  1005hPa North 4.0mph /  6.4km/h 5.0mph /  8km/h 59% 0.00in /  0mm 0.0 W/m2
02:39 71.4 °F /  21.9 °C 59.9 °F /  15.5 °C 29.67in /  1004.6hPa Calm   1.0mph /  1.6km/h 67% 0.01in /  0.25mm 0.0 W/m2
02:46 70.9 °F /  21.6 °C 61.0 °F /  16.1 °C 29.68in /  1005hPa Calm   1.0mph /  1.6km/h 71% 0.02in /  0.51mm 0.0 W/m2
02:52 70.0 °F /  21.1 °C 61.0 °F /  16.1 °C 29.68in /  1005hPa South 0.9mph /  1.4km/h 1.0mph /  1.6km/h 73% 0.02in /  0.51mm 0.0 W/m2
02:58 68.7 °F /  20.4 °C 60.8 °F /  16 °C 29.68in /  1005hPa SSW 2.0mph /  3.2km/h 4.0mph /  6.4km/h 76% 0.02in /  0.51mm 0.0 W/m2
03:04 67.8 °F /  19.9 °C 59.9 °F /  15.5 °C 29.68in /  1005hPa SE 2.0mph /  3.2km/h 5.0mph /  8km/h 76% 0.02in /  0.51mm 0.0 W/m2
03:10 67.3 °F /  19.6 °C 59.9 °F /  15.5 °C 29.68in /  1005hPa SSE 0.9mph /  1.4km/h 6.0mph /  9.7km/h 77% 0.02in /  0.51mm 0.0 W/m2
03:16 66.4 °F /  19.1 °C 60.1 °F /  15.6 °C 29.68in /  1005hPa SW 4.9mph /  7.9km/h 12.0mph /  19.3km/h 80% 0.02in /  0.51mm 0.0 W/m2
03:22 65.7 °F /  18.7 °C 60.4 °F /  15.8 °C 29.67in /  1004.6hPa South 2.0mph /  3.2km/h 6.0mph /  9.7km/h 83% 0.02in /  0.51mm 0.0 W/m2
03:28 65.1 °F /  18.4 °C 60.1 °F /  15.6 °C 29.67in /  1004.6hPa South 2.0mph /  3.2km/h 10.0mph /  16.1km/h 84% 0.02in /  0.51mm 0.0 W/m2
03:34 64.9 °F /  18.3 °C 59.9 °F /  15.5 °C 29.67in /  1004.6hPa SSE 8.1mph /  13km/h 11.0mph /  17.7km/h 84% 0.02in /  0.51mm 0.0 W/m2
03:43 64.8 °F /  18.2 °C 60.1 °F /  15.6 °C 29.68in /  1005hPa South 14.1mph /  22.7km/h 16.0mph /  25.7km/h 85% 0.01in /  0.25mm 0.0 W/m2
03:49 64.2 °F /  17.9 °C 59.0 °F /  15 °C 29.67in /  1004.6hPa SE 0.9mph /  1.4km/h 10.0mph /  16.1km/h 83% 0.01in /  0.25mm 0.0 W/m2
03:55 64.0 °F /  17.8 °C 59.2 °F /  15.1 °C 29.67in /  1004.6hPa SSE 2.9mph /  4.7km/h 11.0mph /  17.7km/h 84% 0.01in /  0.25mm 0.0 W/m2
04:01 63.9 °F /  17.7 °C 59.0 °F /  15 °C 29.68in /  1005hPa South 2.9mph /  4.7km/h 9.0mph /  14.5km/h 84% 0.01in /  0.25mm 0.0 W/m2
04:07 63.7 °F /  17.6 °C 59.0 °F /  15 °C 29.68in /  1005hPa SSW 0.9mph /  1.4km/h 6.0mph /  9.7km/h 85% 0.01in /  0.25mm 0.0 W/m2
04:13 63.7 °F /  17.6 °C 59.0 °F /  15 °C 29.67in /  1004.6hPa ESE 2.9mph /  4.7km/h 10.0mph /  16.1km/h 85% 0.00in /  0mm 0.0 W/m2
04:20 63.7 °F /  17.6 °C 58.8 °F /  14.9 °C 29.68in /  1005hPa SSE 6.9mph /  11.1km/h 16.0mph /  25.7km/h 84% 0.00in /  0mm 0.0 W/m2
04:26 63.7 °F /  17.6 °C 58.8 °F /  14.9 °C 29.67in /  1004.6hPa South 6.0mph /  9.7km/h 15.0mph /  24.1km/h 84% 0.00in /  0mm 0.0 W/m2
04:32 63.9 °F /  17.7 °C 59.0 °F /  15 °C 29.67in /  1004.6hPa ESE 8.1mph /  13km/h 14.0mph /  22.5km/h 84% 0.00in /  0mm 0.0 W/m2
04:38 63.9 °F /  17.7 °C 59.0 °F /  15 °C 29.67in /  1004.6hPa SSE 10.1mph /  16.3km/h 12.0mph /  19.3km/h 84% 0.00in /  0mm 0.0 W/m2
04:44 63.7 °F /  17.6 °C 58.8 °F /  14.9 °C 29.68in /  1005hPa SE 8.1mph /  13km/h 9.0mph /  14.5km/h 84% 0.00in /  0mm 0.0 W/m2
04:50 63.7 °F /  17.6 °C 58.5 °F /  14.7 °C 29.68in /  1005hPa SSE 8.9mph /  14.3km/h 9.0mph /  14.5km/h 83% 0.00in /  0mm 0.0 W/m2
04:56 63.9 °F /  17.7 °C 58.6 °F /  14.8 °C 29.68in /  1005hPa SE 6.0mph /  9.7km/h 8.0mph /  12.9km/h 83% 0.00in /  0mm 0.0 W/m2
05:02 63.9 °F /  17.7 °C 58.3 °F /  14.6 °C 29.68in /  1005hPa SE 4.0mph /  6.4km/h 8.0mph /  12.9km/h 82% 0.00in /  0mm 0.0 W/m2
05:08 63.9 °F /  17.7 °C 58.3 °F /  14.6 °C 29.68in /  1005hPa SE 8.9mph /  14.3km/h 12.0mph /  19.3km/h 82% 0.00in /  0mm 0.0 W/m2
05:15 64.0 °F /  17.8 °C 58.5 °F /  14.7 °C 29.68in /  1005hPa SSE 8.1mph /  13km/h 15.0mph /  24.1km/h 82% 0.00in /  0mm 0.0 W/m2
05:21 64.0 °F /  17.8 °C 58.5 °F /  14.7 °C 29.68in /  1005hPa SSE 2.0mph /  3.2km/h 8.0mph /  12.9km/h 82% 0.00in /  0mm 0.0 W/m2
05:27 64.2 °F /  17.9 °C 58.6 °F /  14.8 °C 29.68in /  1005hPa South 2.0mph /  3.2km/h 10.0mph /  16.1km/h 82% 0.00in /  0mm 0.0 W/m2
05:33 64.2 °F /  17.9 °C 58.6 °F /  14.8 °C 29.68in /  1005hPa SE 4.9mph /  7.9km/h 12.0mph /  19.3km/h 82% 0.00in /  0mm 0.0 W/m2
05:39 64.0 °F /  17.8 °C 58.1 °F /  14.5 °C 29.69in /  1005.3hPa SE 2.9mph /  4.7km/h 11.0mph /  17.7km/h 81% 0.00in /  0mm 0.0 W/m2
05:45 64.0 °F /  17.8 °C 58.1 °F /  14.5 °C 29.69in /  1005.3hPa SE 6.0mph /  9.7km/h 9.0mph /  14.5km/h 81% 0.00in /  0mm 0.0 W/m2
05:51 64.2 °F /  17.9 °C 58.3 °F /  14.6 °C 29.69in /  1005.3hPa South 4.9mph /  7.9km/h 11.0mph /  17.7km/h 81% 0.00in /  0mm 0.0 W/m2
05:57 64.4 °F /  18 °C 58.5 °F /  14.7 °C 29.69in /  1005.3hPa South 6.9mph /  11.1km/h 9.0mph /  14.5km/h 81% 0.00in /  0mm 0.0 W/m2
06:04 64.4 °F /  18 °C 58.5 °F /  14.7 °C 29.70in /  1005.6hPa SSE 14.1mph /  22.7km/h 14.1mph /  22.7km/h 81% 0.00in /  0mm 0.0 W/m2
06:10 64.6 °F /  18.1 °C 58.6 °F /  14.8 °C 29.70in /  1005.6hPa SE 2.9mph /  4.7km/h 8.0mph /  12.9km/h 81% 0.00in /  0mm 0.0 W/m2
06:16 64.6 °F /  18.1 °C 58.3 °F /  14.6 °C 29.70in /  1005.6hPa SE 4.0mph /  6.4km/h 16.0mph /  25.7km/h 80% 0.00in /  0mm 0.0 W/m2
06:22 64.6 °F /  18.1 °C 58.6 °F /  14.8 °C 29.70in /  1005.6hPa SSW 2.0mph /  3.2km/h 8.0mph /  12.9km/h 81% 0.00in /  0mm 0.0 W/m2
06:28 64.6 °F /  18.1 °C 58.6 °F /  14.8 °C 29.70in /  1005.6hPa Calm   6.0mph /  9.7km/h 81% 0.00in /  0mm 0.0 W/m2
06:34 64.6 °F /  18.1 °C 58.6 °F /  14.8 °C 29.70in /  1005.6hPa SSE 4.0mph /  6.4km/h 8.0mph /  12.9km/h 81% 0.00in /  0mm 0.0 W/m2
06:40 64.4 °F /  18 °C 58.1 °F /  14.5 °C 29.70in /  1005.6hPa SSW 4.0mph /  6.4km/h 6.0mph /  9.7km/h 80% 0.00in /  0mm 7.0 W/m2
06:46 64.6 °F /  18.1 °C 58.3 °F /  14.6 °C 29.71in /  1006hPa South 2.0mph /  3.2km/h 2.0mph /  3.2km/h 80% 0.00in /  0mm 11.0 W/m2
06:53 64.6 °F /  18.1 °C 58.3 °F /  14.6 °C 29.71in /  1006hPa SSE 2.9mph /  4.7km/h 8.0mph /  12.9km/h 80% 0.00in /  0mm 16.0 W/m2
06:59 64.8 °F /  18.2 °C 58.1 °F /  14.5 °C 29.71in /  1006hPa SSE 4.0mph /  6.4km/h 8.0mph /  12.9km/h 79% 0.00in /  0mm 21.0 W/m2
07:05 64.8 °F /  18.2 °C 57.7 °F /  14.3 °C 29.71in /  1006hPa South 2.9mph /  4.7km/h 9.0mph /  14.5km/h 78% 0.00in /  0mm 25.0 W/m2
07:11 64.9 °F /  18.3 °C 57.6 °F /  14.2 °C 29.71in /  1006hPa Calm   2.0mph /  3.2km/h 77% 0.00in /  0mm 26.0 W/m2
07:17 65.1 °F /  18.4 °C 57.4 °F /  14.1 °C 29.71in /  1006hPa Calm     76% 0.00in /  0mm 25.0 W/m2
07:23 65.1 °F /  18.4 °C 57.4 °F /  14.1 °C 29.71in /  1006hPa Calm   1.0mph /  1.6km/h 76% 0.00in /  0mm 18.0 W/m2
07:29 65.5 °F /  18.6 °C 58.5 °F /  14.7 °C 29.72in /  1006.3hPa Calm   2.0mph /  3.2km/h 78% 0.00in /  0mm 14.0 W/m2
07:36 65.5 °F /  18.6 °C 58.8 °F /  14.9 °C 29.72in /  1006.3hPa Calm   1.0mph /  1.6km/h 79% 0.00in /  0mm 19.0 W/m2
07:42 65.5 °F /  18.6 °C 58.8 °F /  14.9 °C 29.72in /  1006.3hPa Calm     79% 0.00in /  0mm 23.0 W/m2
07:48 65.7 °F /  18.7 °C 59.0 °F /  15 °C 29.72in /  1006.3hPa ENE 0.9mph /  1.4km/h 2.0mph /  3.2km/h 79% 0.00in /  0mm 26.0 W/m2
07:54 65.7 °F /  18.7 °C 58.3 °F /  14.6 °C 29.72in /  1006.3hPa North 2.9mph /  4.7km/h 4.0mph /  6.4km/h 77% 0.00in /  0mm 37.0 W/m2
08:00 65.8 °F /  18.8 °C 58.1 °F /  14.5 °C 29.72in /  1006.3hPa Calm   1.0mph /  1.6km/h 76% 0.00in /  0mm 44.0 W/m2
08:06 65.8 °F /  18.8 °C 58.1 °F /  14.5 °C 29.72in /  1006.3hPa Calm   1.0mph /  1.6km/h 76% 0.00in /  0mm 58.0 W/m2
08:12 66.0 °F /  18.9 °C 58.3 °F /  14.6 °C 29.72in /  1006.3hPa North 0.9mph /  1.4km/h 4.0mph /  6.4km/h 76% 0.00in /  0mm 63.0 W/m2
08:18 66.0 °F /  18.9 °C 58.3 °F /  14.6 °C 29.72in /  1006.3hPa NNE 0.9mph /  1.4km/h 4.0mph /  6.4km/h 76% 0.00in /  0mm 70.0 W/m2
08:25 66.0 °F /  18.9 °C 58.3 °F /  14.6 °C 29.71in /  1006hPa Calm   1.0mph /  1.6km/h 76% 0.00in /  0mm 86.0 W/m2
08:31 66.4 °F /  19.1 °C 58.6 °F /  14.8 °C 29.72in /  1006.3hPa Calm   1.0mph /  1.6km/h 76% 0.00in /  0mm 105.0 W/m2
08:37 66.6 °F /  19.2 °C 58.1 °F /  14.5 °C 29.71in /  1006hPa NNE 4.0mph /  6.4km/h 4.0mph /  6.4km/h 74% 0.00in /  0mm 139.0 W/m2
08:43 66.7 °F /  19.3 °C 58.1 °F /  14.5 °C 29.71in /  1006hPa Calm   1.0mph /  1.6km/h 74% 0.00in /  0mm 132.0 W/m2
08:49 67.3 °F /  19.6 °C 58.6 °F /  14.8 °C 29.71in /  1006hPa Calm     74% 0.00in /  0mm 132.0 W/m2
08:55 67.5 °F /  19.7 °C 58.5 °F /  14.7 °C 29.71in /  1006hPa SSE 4.0mph /  6.4km/h 4.0mph /  6.4km/h 73% 0.00in /  0mm 134.0 W/m2
09:01 67.8 °F /  19.9 °C 58.8 °F /  14.9 °C 29.71in /  1006hPa Calm   1.0mph /  1.6km/h 73% 0.00in /  0mm 160.0 W/m2
09:07 68.2 °F /  20.1 °C 58.8 °F /  14.9 °C 29.71in /  1006hPa Calm   1.0mph /  1.6km/h 72% 0.00in /  0mm 183.0 W/m2
09:13 68.5 °F /  20.3 °C 58.8 °F /  14.9 °C 29.71in /  1006hPa Calm   1.0mph /  1.6km/h 71% 0.00in /  0mm 207.0 W/m2
09:20 69.1 °F /  20.6 °C 58.8 °F /  14.9 °C 29.71in /  1006hPa SSW 0.9mph /  1.4km/h 4.0mph /  6.4km/h 70% 0.00in /  0mm 223.0 W/m2
09:26 69.3 °F /  20.7 °C 58.6 °F /  14.8 °C 29.72in /  1006.3hPa Calm   1.0mph /  1.6km/h 69% 0.00in /  0mm 264.0 W/m2
09:32 69.6 °F /  20.9 °C 58.6 °F /  14.8 °C 29.71in /  1006hPa WSW 0.9mph /  1.4km/h 1.0mph /  1.6km/h 68% 0.00in /  0mm 250.0 W/m2
09:38 69.6 °F /  20.9 °C 58.1 °F /  14.5 °C 29.72in /  1006.3hPa Calm     67% 0.00in /  0mm 276.0 W/m2
09:44 70.2 °F /  21.2 °C 59.5 °F /  15.3 °C 29.72in /  1006.3hPa Calm   3.0mph /  4.8km/h 69% 0.00in /  0mm 258.0 W/m2
09:50 70.5 °F /  21.4 °C 59.9 °F /  15.5 °C 29.72in /  1006.3hPa NNE 0.9mph /  1.4km/h 1.0mph /  1.6km/h 69% 0.00in /  0mm 278.0 W/m2
09:56 71.1 °F /  21.7 °C 59.9 °F /  15.5 °C 29.71in /  1006hPa ENE 2.0mph /  3.2km/h 5.0mph /  8km/h 68% 0.00in /  0mm 299.0 W/m2
10:03 71.8 °F /  22.1 °C 59.0 °F /  15 °C 29.72in /  1006.3hPa North 4.0mph /  6.4km/h 5.0mph /  8km/h 64% 0.00in /  0mm 352.0 W/m2
10:09 72.5 °F /  22.5 °C 59.2 °F /  15.1 °C 29.71in /  1006hPa Calm   1.0mph /  1.6km/h 63% 0.00in /  0mm 330.0 W/m2
10:15 73.2 °F /  22.9 °C 59.9 °F /  15.5 °C 29.71in /  1006hPa Calm   2.0mph /  3.2km/h 63% 0.00in /  0mm 385.0 W/m2
10:21 73.8 °F /  23.2 °C 58.5 °F /  14.7 °C 29.71in /  1006hPa Calm   2.0mph /  3.2km/h 59% 0.00in /  0mm 452.0 W/m2
10:27 74.5 °F /  23.6 °C 58.8 °F /  14.9 °C 29.71in /  1006hPa Calm   2.0mph /  3.2km/h 58% 0.00in /  0mm 434.0 W/m2
10:33 75.4 °F /  24.1 °C 58.1 °F /  14.5 °C 29.71in /  1006hPa Calm   3.0mph /  4.8km/h 55% 0.00in /  0mm 531.0 W/m2
10:39 75.7 °F /  24.3 °C 58.5 °F /  14.7 °C 29.71in /  1006hPa Calm     55% 0.00in /  0mm 527.0 W/m2
10:45 76.5 °F /  24.7 °C 59.2 °F /  15.1 °C 29.71in /  1006hPa NNE 2.0mph /  3.2km/h 4.0mph /  6.4km/h 55% 0.00in /  0mm 464.0 W/m2
10:52 77.2 °F /  25.1 °C 60.3 °F /  15.7 °C 29.71in /  1006hPa Calm   1.0mph /  1.6km/h 56% 0.00in /  0mm 473.0 W/m2
10:58 77.7 °F /  25.4 °C 59.2 °F /  15.1 °C 29.71in /  1006hPa North 2.0mph /  3.2km/h 2.0mph /  3.2km/h 53% 0.00in /  0mm 508.0 W/m2
11:04 78.1 °F /  25.6 °C 59.5 °F /  15.3 °C 29.71in /  1006hPa ENE 0.9mph /  1.4km/h 5.0mph /  8km/h 53% 0.00in /  0mm 522.0 W/m2
11:10 78.3 °F /  25.7 °C 60.3 °F /  15.7 °C 29.71in /  1006hPa North 2.9mph /  4.7km/h 8.0mph /  12.9km/h 54% 0.00in /  0mm 473.0 W/m2
11:16 78.4 °F /  25.8 °C 59.9 °F /  15.5 °C 29.71in /  1006hPa North 4.9mph /  7.9km/h 7.0mph /  11.3km/h 53% 0.00in /  0mm 446.0 W/m2
11:22 78.3 °F /  25.7 °C 59.2 °F /  15.1 °C 29.71in /  1006hPa NW 4.9mph /  7.9km/h 6.0mph /  9.7km/h 52% 0.00in /  0mm 429.0 W/m2
11:28 77.9 °F /  25.5 °C 58.8 °F /  14.9 °C 29.71in /  1006hPa NNW 4.9mph /  7.9km/h 9.0mph /  14.5km/h 52% 0.00in /  0mm 475.0 W/m2
11:35 77.7 °F /  25.4 °C 58.6 °F /  14.8 °C 29.71in /  1006hPa North 4.0mph /  6.4km/h 9.0mph /  14.5km/h 52% 0.00in /  0mm 501.0 W/m2
11:41 77.7 °F /  25.4 °C 59.2 °F /  15.1 °C 29.71in /  1006hPa NE 2.9mph /  4.7km/h 6.0mph /  9.7km/h 53% 0.00in /  0mm 575.0 W/m2
11:47 78.1 °F /  25.6 °C 59.5 °F /  15.3 °C 29.71in /  1006hPa NNW 2.0mph /  3.2km/h 6.0mph /  9.7km/h 53% 0.00in /  0mm 633.0 W/m2
11:53 78.6 °F /  25.9 °C 59.5 °F /  15.3 °C 29.71in /  1006hPa NNW 0.9mph /  1.4km/h 5.0mph /  8km/h 52% 0.00in /  0mm 613.0 W/m2
11:59 78.8 °F /  26 °C 59.7 °F /  15.4 °C 29.71in /  1006hPa Calm   2.0mph /  3.2km/h 52% 0.00in /  0mm 649.0 W/m2
12:05 79.2 °F /  26.2 °C 59.5 °F /  15.3 °C 29.71in /  1006hPa Calm   6.0mph /  9.7km/h 51% 0.00in /  0mm 652.0 W/m2
12:11 79.5 °F /  26.4 °C 59.7 °F /  15.4 °C 29.71in /  1006hPa Calm   5.0mph /  8km/h 51% 0.00in /  0mm 577.0 W/m2
12:17 79.9 °F /  26.6 °C 59.5 °F /  15.3 °C 29.70in /  1005.6hPa WSW 2.0mph /  3.2km/h 2.0mph /  3.2km/h 50% 0.00in /  0mm 626.0 W/m2
12:24 79.9 °F /  26.6 °C 59.5 °F /  15.3 °C 29.71in /  1006hPa Calm   3.0mph /  4.8km/h 50% 0.00in /  0mm 682.0 W/m2
12:30 80.1 °F /  26.7 °C 59.7 °F /  15.4 °C 29.70in /  1005.6hPa North 0.9mph /  1.4km/h 3.0mph /  4.8km/h 50% 0.00in /  0mm 563.0 W/m2
12:36 80.8 °F /  27.1 °C 59.2 °F /  15.1 °C 29.70in /  1005.6hPa NNE 2.9mph /  4.7km/h 4.0mph /  6.4km/h 48% 0.00in /  0mm 561.0 W/m2
12:42 81.1 °F /  27.3 °C 59.5 °F /  15.3 °C 29.70in /  1005.6hPa Calm   2.0mph /  3.2km/h 48% 0.00in /  0mm 631.0 W/m2
12:48 81.7 °F /  27.6 °C 60.1 °F /  15.6 °C 29.69in /  1005.3hPa North 6.0mph /  9.7km/h 7.0mph /  11.3km/h 48% 0.00in /  0mm 919.0 W/m2
12:54 82.2 °F /  27.9 °C 59.4 °F /  15.2 °C 29.68in /  1005hPa South 0.9mph /  1.4km/h 3.0mph /  4.8km/h 46% 0.00in /  0mm 696.0 W/m2
13:00 82.6 °F /  28.1 °C 59.7 °F /  15.4 °C 29.68in /  1005hPa SE 4.0mph /  6.4km/h 6.0mph /  9.7km/h 46% 0.00in /  0mm 1346.0 W/m2
13:06 82.6 °F /  28.1 °C 59.0 °F /  15 °C 29.67in /  1004.6hPa NE 4.0mph /  6.4km/h 4.0mph /  6.4km/h 45% 0.00in /  0mm 540.0 W/m2
13:13 82.9 °F /  28.3 °C 59.4 °F /  15.2 °C 29.67in /  1004.6hPa NE 2.0mph /  3.2km/h 4.0mph /  6.4km/h 45% 0.00in /  0mm 889.0 W/m2
13:19 83.8 °F /  28.8 °C 59.5 °F /  15.3 °C 29.67in /  1004.6hPa West 0.9mph /  1.4km/h 3.0mph /  4.8km/h 44% 0.00in /  0mm 1155.0 W/m2
13:25 84.0 °F /  28.9 °C 59.2 °F /  15.1 °C 29.67in /  1004.6hPa East 2.9mph /  4.7km/h 3.0mph /  4.8km/h 43% 0.00in /  0mm 1238.0 W/m2
13:31 84.2 °F /  29 °C 59.9 °F /  15.5 °C 29.67in /  1004.6hPa East 4.9mph /  7.9km/h 10.0mph /  16.1km/h 44% 0.00in /  0mm 332.0 W/m2
13:37 82.8 °F /  28.2 °C 59.2 °F /  15.1 °C 29.67in /  1004.6hPa East 6.0mph /  9.7km/h 7.0mph /  11.3km/h 45% 0.00in /  0mm 230.0 W/m2
13:43 81.9 °F /  27.7 °C 59.0 °F /  15 °C 29.66in /  1004.3hPa SE 2.9mph /  4.7km/h 5.0mph /  8km/h 46% 0.00in /  0mm 265.0 W/m2
13:50 81.7 °F /  27.6 °C 57.6 °F /  14.2 °C 29.66in /  1004.3hPa ENE 4.0mph /  6.4km/h 5.0mph /  8km/h 44% 0.00in /  0mm 316.0 W/m2
13:56 81.7 °F /  27.6 °C 57.6 °F /  14.2 °C 29.66in /  1004.3hPa East 2.0mph /  3.2km/h 5.0mph /  8km/h 44% 0.00in /  0mm 612.0 W/m2
14:02 82.0 °F /  27.8 °C 58.6 °F /  14.8 °C 29.65in /  1003.9hPa East 4.9mph /  7.9km/h 5.0mph /  8km/h 45% 0.00in /  0mm 381.0 W/m2
14:08 82.2 °F /  27.9 °C 58.1 °F /  14.5 °C 29.65in /  1003.9hPa ENE 2.9mph /  4.7km/h 8.0mph /  12.9km/h 44% 0.00in /  0mm 338.0 W/m2
14:14 81.7 °F /  27.6 °C 56.3 °F /  13.5 °C 29.65in /  1003.9hPa ENE 4.9mph /  7.9km/h 5.0mph /  8km/h 42% 0.00in /  0mm 244.0 W/m2
14:20 81.7 °F /  27.6 °C 55.8 °F /  13.2 °C 29.65in /  1003.9hPa Calm   2.0mph /  3.2km/h 41% 0.00in /  0mm 218.0 W/m2
14:26 81.5 °F /  27.5 °C 55.6 °F /  13.1 °C 29.64in /  1003.6hPa ENE 0.9mph /  1.4km/h 3.0mph /  4.8km/h 41% 0.00in /  0mm 155.0 W/m2
14:32 81.5 °F /  27.5 °C 57.6 °F /  14.2 °C 29.64in /  1003.6hPa ESE 2.9mph /  4.7km/h 9.0mph /  14.5km/h 44% 0.00in /  0mm 146.0 W/m2
14:40 80.8 °F /  27.1 °C 57.4 °F /  14.1 °C 29.65in /  1003.9hPa SW 0.9mph /  1.4km/h 5.0mph /  8km/h 45% 0.00in /  0mm 74.0 W/m2
14:46 77.5 °F /  25.3 °C 56.8 °F /  13.8 °C 29.66in /  1004.3hPa WSW 8.9mph /  14.3km/h 13.0mph /  20.9km/h 49% 0.00in /  0mm 35.0 W/m2
14:52 72.7 °F /  22.6 °C 58.8 °F /  14.9 °C 29.67in /  1004.6hPa South 4.9mph /  7.9km/h 8.0mph /  12.9km/h 62% 0.00in /  0mm 32.0 W/m2
14:58 70.0 °F /  21.1 °C 59.0 °F /  15 °C 29.68in /  1005hPa SSW 2.9mph /  4.7km/h 14.0mph /  22.5km/h 68% 0.00in /  0mm 35.0 W/m2
15:04 67.5 °F /  19.7 °C 58.5 °F /  14.7 °C 29.68in /  1005hPa SW 2.0mph /  3.2km/h 12.0mph /  19.3km/h 73% 0.02in /  0.51mm 35.0 W/m2
15:10 66.0 °F /  18.9 °C 57.9 °F /  14.4 °C 29.67in /  1004.6hPa SE 4.0mph /  6.4km/h 9.0mph /  14.5km/h 75% 0.02in /  0.51mm 42.0 W/m2
15:16 65.1 °F /  18.4 °C 58.5 °F /  14.7 °C 29.67in /  1004.6hPa SE 2.0mph /  3.2km/h 9.0mph /  14.5km/h 79% 0.04in /  1.02mm 54.0 W/m2
15:22 64.9 °F /  18.3 °C 59.0 °F /  15 °C 29.66in /  1004.3hPa ESE 4.0mph /  6.4km/h 4.0mph /  6.4km/h 81% 0.06in /  1.52mm 83.0 W/m2
15:28 64.6 °F /  18.1 °C 59.0 °F /  15 °C 29.65in /  1003.9hPa Calm   3.0mph /  4.8km/h 82% 0.06in /  1.52mm 111.0 W/m2
15:34 64.6 °F /  18.1 °C 59.4 °F /  15.2 °C 29.63in /  1003.3hPa Calm   2.0mph /  3.2km/h 83% 0.06in /  1.52mm 128.0 W/m2
15:40 64.9 °F /  18.3 °C 59.0 °F /  15 °C 29.63in /  1003.3hPa Calm   7.0mph /  11.3km/h 81% 0.06in /  1.52mm 135.0 W/m2
15:46 65.7 °F /  18.7 °C 60.4 °F /  15.8 °C 29.63in /  1003.3hPa SE 0.9mph /  1.4km/h 5.0mph /  8km/h 83% 0.06in /  1.52mm 127.0 W/m2
15:52 65.8 °F /  18.8 °C 59.5 °F /  15.3 °C 29.63in /  1003.3hPa SE 2.9mph /  4.7km/h 5.0mph /  8km/h 80% 0.06in /  1.52mm 134.0 W/m2
15:59 66.0 °F /  18.9 °C 59.7 °F /  15.4 °C 29.63in /  1003.3hPa ESE 2.0mph /  3.2km/h 6.0mph /  9.7km/h 80% 0.06in /  1.52mm 200.0 W/m2
16:04 66.6 °F /  19.2 °C 59.5 °F /  15.3 °C 29.63in /  1003.3hPa SSE 0.9mph /  1.4km/h 5.0mph /  8km/h 78% 0.04in /  1.02mm 202.0 W/m2
16:10 67.3 °F /  19.6 °C 59.9 °F /  15.5 °C 29.63in /  1003.3hPa SSE 2.0mph /  3.2km/h 8.0mph /  12.9km/h 77% 0.03in /  0.76mm 216.0 W/m2
16:16 67.8 °F /  19.9 °C 58.8 °F /  14.9 °C 29.63in /  1003.3hPa SSE 4.9mph /  7.9km/h 6.0mph /  9.7km/h 73% 0.02in /  0.51mm 236.0 W/m2
16:22 68.4 °F /  20.2 °C 58.6 °F /  14.8 °C 29.62in /  1002.9hPa SE 6.0mph /  9.7km/h 8.0mph /  12.9km/h 71% 0.01in /  0.25mm 223.0 W/m2
16:28 68.9 °F /  20.5 °C 57.9 °F /  14.4 °C 29.63in /  1003.3hPa Calm   8.0mph /  12.9km/h 68% 0.01in /  0.25mm 216.0 W/m2
16:34 69.4 °F /  20.8 °C 57.9 °F /  14.4 °C 29.63in /  1003.3hPa SE 0.9mph /  1.4km/h 9.0mph /  14.5km/h 67% 0.01in /  0.25mm 216.0 W/m2
16:40 69.8 °F /  21 °C 58.3 °F /  14.6 °C 29.62in /  1002.9hPa SE 2.0mph /  3.2km/h 7.0mph /  11.3km/h 67% 0.01in /  0.25mm 239.0 W/m2
16:46 70.3 °F /  21.3 °C 58.1 °F /  14.5 °C 29.62in /  1002.9hPa SE 4.0mph /  6.4km/h 4.0mph /  6.4km/h 65% 0.01in /  0.25mm 225.0 W/m2
16:52 70.9 °F /  21.6 °C 58.5 °F /  14.7 °C 29.62in /  1002.9hPa SE 0.9mph /  1.4km/h 4.0mph /  6.4km/h 65% 0.00in /  0mm 195.0 W/m2
16:58 71.2 °F /  21.8 °C 59.7 °F /  15.4 °C 29.63in /  1003.3hPa Calm   3.0mph /  4.8km/h 67% 0.00in /  0mm 162.0 W/m2
17:04 71.6 °F /  22 °C 59.7 °F /  15.4 °C 29.63in /  1003.3hPa ENE 0.9mph /  1.4km/h 3.0mph /  4.8km/h 66% 0.00in /  0mm 125.0 W/m2
17:10 72.0 °F /  22.2 °C 60.4 °F /  15.8 °C 29.63in /  1003.3hPa Calm   2.0mph /  3.2km/h 67% 0.00in /  0mm 130.0 W/m2
17:18 72.0 °F /  22.2 °C 59.5 °F /  15.3 °C 29.63in /  1003.3hPa ESE 0.9mph /  1.4km/h 1.0mph /  1.6km/h 65% 0.00in /  0mm 160.0 W/m2
17:24 72.1 °F /  22.3 °C 58.5 °F /  14.7 °C 29.63in /  1003.3hPa Calm   2.0mph /  3.2km/h 62% 0.00in /  0mm 156.0 W/m2
17:30 72.3 °F /  22.4 °C 58.6 °F /  14.8 °C 29.64in /  1003.6hPa West 0.9mph /  1.4km/h 1.0mph /  1.6km/h 62% 0.00in /  0mm 134.0 W/m2
17:36 72.7 °F /  22.6 °C 60.6 °F /  15.9 °C 29.65in /  1003.9hPa West 2.0mph /  3.2km/h 7.0mph /  11.3km/h 66% 0.00in /  0mm 104.0 W/m2
17:47 72.7 °F /  22.6 °C 59.7 °F /  15.4 °C 29.66in /  1004.3hPa WSW 4.0mph /  6.4km/h 7.0mph /  11.3km/h 64% 0.00in /  0mm 100.0 W/m2
17:54 72.1 °F /  22.3 °C 60.6 °F /  15.9 °C 29.67in /  1004.6hPa SW 2.9mph /  4.7km/h 9.0mph /  14.5km/h 67% 0.00in /  0mm 62.0 W/m2
17:59 71.4 °F /  21.9 °C 59.9 °F /  15.5 °C 29.67in /  1004.6hPa WSW 4.0mph /  6.4km/h 13.0mph /  20.9km/h 67% 0.00in /  0mm 69.0 W/m2
18:06 71.1 °F /  21.7 °C 59.5 °F /  15.3 °C 29.67in /  1004.6hPa WNW 2.0mph /  3.2km/h 7.0mph /  11.3km/h 67% 0.00in /  0mm 65.0 W/m2
18:13 70.3 °F /  21.3 °C 58.8 °F /  14.9 °C 29.68in /  1005hPa WSW 0.9mph /  1.4km/h 8.0mph /  12.9km/h 67% 0.00in /  0mm 53.0 W/m2
18:19 70.2 °F /  21.2 °C 58.3 °F /  14.6 °C 29.69in /  1005.3hPa West 4.9mph /  7.9km/h 13.0mph /  20.9km/h 66% 0.00in /  0mm 58.0 W/m2
18:25 70.0 °F /  21.1 °C 58.5 °F /  14.7 °C 29.70in /  1005.6hPa SW 2.9mph /  4.7km/h 12.0mph /  19.3km/h 67% 0.00in /  0mm 49.0 W/m2
18:31 69.6 °F /  20.9 °C 59.0 °F /  15 °C 29.70in /  1005.6hPa WNW 8.9mph /  14.3km/h 10.0mph /  16.1km/h 69% 0.00in /  0mm 33.0 W/m2
18:37 69.1 °F /  20.6 °C 58.5 °F /  14.7 °C 29.70in /  1005.6hPa West 6.0mph /  9.7km/h 8.0mph /  12.9km/h 69% 0.00in /  0mm 25.0 W/m2
18:46 68.7 °F /  20.4 °C 58.5 °F /  14.7 °C 29.70in /  1005.6hPa Calm   8.0mph /  12.9km/h 70% 0.00in /  0mm 21.0 W/m2
18:51 68.5 °F /  20.3 °C 58.8 °F /  14.9 °C 29.71in /  1006hPa Calm   6.0mph /  9.7km/h 71% 0.00in /  0mm 18.0 W/m2
18:57 68.4 °F /  20.2 °C 58.3 °F /  14.6 °C 29.71in /  1006hPa SSW 2.0mph /  3.2km/h 8.0mph /  12.9km/h 70% 0.00in /  0mm 16.0 W/m2
19:04 68.2 °F /  20.1 °C 58.1 °F /  14.5 °C 29.72in /  1006.3hPa WSW 2.0mph /  3.2km/h 4.0mph /  6.4km/h 70% 0.00in /  0mm 14.0 W/m2
19:10 67.8 °F /  19.9 °C 57.7 °F /  14.3 °C 29.71in /  1006hPa WSW 0.9mph /  1.4km/h 3.0mph /  4.8km/h 70% 0.00in /  0mm 11.0 W/m2
19:16 67.6 °F /  19.8 °C 57.0 °F /  13.9 °C 29.72in /  1006.3hPa WSW 2.9mph /  4.7km/h 9.0mph /  14.5km/h 69% 0.00in /  0mm 7.0 W/m2
19:22 67.6 °F /  19.8 °C 57.6 °F /  14.2 °C 29.72in /  1006.3hPa Calm   7.0mph /  11.3km/h 70% 0.00in /  0mm 5.0 W/m2
19:28 67.6 °F /  19.8 °C 57.0 °F /  13.9 °C 29.72in /  1006.3hPa WNW 4.0mph /  6.4km/h 8.0mph /  12.9km/h 69% 0.00in /  0mm 0.0 W/m2
19:34 67.6 °F /  19.8 °C 57.9 °F /  14.4 °C 29.72in /  1006.3hPa Calm   2.0mph /  3.2km/h 71% 0.00in /  0mm 0.0 W/m2
19:40 67.5 °F /  19.7 °C 58.8 °F /  14.9 °C 29.73in /  1006.7hPa WSW 0.9mph /  1.4km/h 3.0mph /  4.8km/h 74% 0.01in /  0.25mm 0.0 W/m2
19:46 67.3 °F /  19.6 °C 59.9 °F /  15.5 °C 29.73in /  1006.7hPa WSW 4.0mph /  6.4km/h 6.0mph /  9.7km/h 77% 0.01in /  0.25mm 0.0 W/m2
19:52 66.9 °F /  19.4 °C 60.3 °F /  15.7 °C 29.73in /  1006.7hPa WSW 0.9mph /  1.4km/h 2.0mph /  3.2km/h 79% 0.01in /  0.25mm 0.0 W/m2
19:58 66.4 °F /  19.1 °C 59.4 °F /  15.2 °C 29.73in /  1006.7hPa SSW 6.0mph /  9.7km/h 8.0mph /  12.9km/h 78% 0.01in /  0.25mm 0.0 W/m2
20:04 66.0 °F /  18.9 °C 59.4 °F /  15.2 °C 29.74in /  1007hPa SW 4.0mph /  6.4km/h 8.0mph /  12.9km/h 79% 0.02in /  0.51mm 0.0 W/m2
20:10 65.7 °F /  18.7 °C 58.3 °F /  14.6 °C 29.74in /  1007hPa SSE 2.9mph /  4.7km/h 11.0mph /  17.7km/h 77% 0.02in /  0.51mm 0.0 W/m2
20:16 65.5 °F /  18.6 °C 58.5 °F /  14.7 °C 29.74in /  1007hPa Calm   5.0mph /  8km/h 78% 0.02in /  0.51mm 0.0 W/m2
20:22 65.3 °F /  18.5 °C 59.0 °F /  15 °C 29.74in /  1007hPa Calm   2.0mph /  3.2km/h 80% 0.02in /  0.51mm 0.0 W/m2
20:28 65.5 °F /  18.6 °C 58.1 °F /  14.5 °C 29.75in /  1007.3hPa SW 6.0mph /  9.7km/h 6.0mph /  9.7km/h 77% 0.02in /  0.51mm 0.0 W/m2
20:34 65.5 °F /  18.6 °C 58.1 °F /  14.5 °C 29.75in /  1007.3hPa SW 0.9mph /  1.4km/h 1.0mph /  1.6km/h 77% 0.02in /  0.51mm 0.0 W/m2
20:40 65.5 °F /  18.6 °C 58.8 °F /  14.9 °C 29.75in /  1007.3hPa Calm     79% 0.02in /  0.51mm 0.0 W/m2
20:46 65.3 °F /  18.5 °C 59.0 °F /  15 °C 29.75in /  1007.3hPa Calm     80% 0.02in /  0.51mm 0.0 W/m2
20:53 65.1 °F /  18.4 °C 59.2 °F /  15.1 °C 29.76in /  1007.7hPa Calm     81% 0.02in /  0.51mm 0.0 W/m2
20:59 65.1 °F /  18.4 °C 59.5 °F /  15.3 °C 29.77in /  1008hPa SSE 0.9mph /  1.4km/h 7.0mph /  11.3km/h 82% 0.02in /  0.51mm 0.0 W/m2
21:04 65.1 °F /  18.4 °C 59.2 °F /  15.1 °C 29.77in /  1008hPa SE 2.0mph /  3.2km/h 8.0mph /  12.9km/h 81% 0.01in /  0.25mm 0.0 W/m2
21:10 65.1 °F /  18.4 °C 59.2 °F /  15.1 °C 29.77in /  1008hPa SSW 2.9mph /  4.7km/h 10.0mph /  16.1km/h 81% 0.02in /  0.51mm 0.0 W/m2
21:16 64.9 °F /  18.3 °C 59.4 °F /  15.2 °C 29.77in /  1008hPa SSW 4.0mph /  6.4km/h 6.0mph /  9.7km/h 82% 0.02in /  0.51mm 0.0 W/m2
21:23 64.6 °F /  18.1 °C 59.0 °F /  15 °C 29.78in /  1008.4hPa SSW 0.9mph /  1.4km/h 4.0mph /  6.4km/h 82% 0.02in /  0.51mm 0.0 W/m2
21:29 64.6 °F /  18.1 °C 59.7 °F /  15.4 °C 29.78in /  1008.4hPa Calm   2.0mph /  3.2km/h 84% 0.02in /  0.51mm 0.0 W/m2
21:35 64.2 °F /  17.9 °C 59.4 °F /  15.2 °C 29.77in /  1008hPa SSE 0.9mph /  1.4km/h 1.0mph /  1.6km/h 84% 0.02in /  0.51mm 0.0 W/m2
21:41 64.2 °F /  17.9 °C 59.5 °F /  15.3 °C 29.78in /  1008.4hPa Calm   1.0mph /  1.6km/h 85% 0.02in /  0.51mm 0.0 W/m2
21:47 64.2 °F /  17.9 °C 59.9 °F /  15.5 °C 29.78in /  1008.4hPa SW 2.0mph /  3.2km/h 2.0mph /  3.2km/h 86% 0.02in /  0.51mm 0.0 W/m2
21:53 64.0 °F /  17.8 °C 59.4 °F /  15.2 °C 29.77in /  1008hPa Calm   4.0mph /  6.4km/h 85% 0.02in /  0.51mm 0.0 W/m2
21:59 64.0 °F /  17.8 °C 59.2 °F /  15.1 °C 29.77in /  1008hPa Calm   6.0mph /  9.7km/h 84% 0.02in /  0.51mm 0.0 W/m2
22:05 64.0 °F /  17.8 °C 59.4 °F /  15.2 °C 29.77in /  1008hPa SSE 0.9mph /  1.4km/h 4.0mph /  6.4km/h 85% 0.03in /  0.76mm 0.0 W/m2
22:11 63.9 °F /  17.7 °C 59.5 °F /  15.3 °C 29.77in /  1008hPa Calm   5.0mph /  8km/h 86% 0.02in /  0.51mm 0.0 W/m2
22:17 63.9 °F /  17.7 °C 59.5 °F /  15.3 °C 29.77in /  1008hPa Calm   3.0mph /  4.8km/h 86% 0.02in /  0.51mm 0.0 W/m2
22:23 63.7 °F /  17.6 °C 59.7 °F /  15.4 °C 29.77in /  1008hPa Calm   1.0mph /  1.6km/h 87% 0.02in /  0.51mm 0.0 W/m2
22:29 63.7 °F /  17.6 °C 59.7 °F /  15.4 °C 29.77in /  1008hPa SSW 0.9mph /  1.4km/h 1.0mph /  1.6km/h 87% 0.02in /  0.51mm 0.0 W/m2
22:35 63.7 °F /  17.6 °C 59.7 °F /  15.4 °C 29.77in /  1008hPa SE 0.9mph /  1.4km/h 3.0mph /  4.8km/h 87% 0.02in /  0.51mm 0.0 W/m2
22:41 63.9 °F /  17.7 °C 59.9 °F /  15.5 °C 29.77in /  1008hPa SW 2.0mph /  3.2km/h 5.0mph /  8km/h 87% 0.02in /  0.51mm 0.0 W/m2
22:47 63.9 °F /  17.7 °C 59.5 °F /  15.3 °C 29.77in /  1008hPa Calm   7.0mph /  11.3km/h 86% 0.01in /  0.25mm 0.0 W/m2
22:53 64.0 °F /  17.8 °C 59.7 °F /  15.4 °C 29.78in /  1008.4hPa SE 6.0mph /  9.7km/h 11.0mph /  17.7km/h 86% 0.01in /  0.25mm 0.0 W/m2
22:59 64.0 °F /  17.8 °C 59.4 °F /  15.2 °C 29.78in /  1008.4hPa SSE 8.9mph /  14.3km/h 9.0mph /  14.5km/h 85% 0.00in /  0mm 0.0 W/m2
23:05 64.0 °F /  17.8 °C 59.4 °F /  15.2 °C 29.78in /  1008.4hPa ESE 6.9mph /  11.1km/h 9.0mph /  14.5km/h 85% 0.00in /  0mm 0.0 W/m2
23:11 64.0 °F /  17.8 °C 59.4 °F /  15.2 °C 29.78in /  1008.4hPa SSE 4.0mph /  6.4km/h 10.0mph /  16.1km/h 85% 0.00in /  0mm 0.0 W/m2
23:17 64.0 °F /  17.8 °C 59.4 °F /  15.2 °C 29.78in /  1008.4hPa SE 0.9mph /  1.4km/h 9.0mph /  14.5km/h 85% 0.00in /  0mm 0.0 W/m2
23:23 64.0 °F /  17.8 °C 59.7 °F /  15.4 °C 29.78in /  1008.4hPa SSE 2.0mph /  3.2km/h 5.0mph /  8km/h 86% 0.00in /  0mm 0.0 W/m2
23:29 64.0 °F /  17.8 °C 59.4 °F /  15.2 °C 29.78in /  1008.4hPa SSE 2.9mph /  4.7km/h 5.0mph /  8km/h 85% 0.00in /  0mm 0.0 W/m2
23:36 64.0 °F /  17.8 °C 59.2 °F /  15.1 °C 29.78in /  1008.4hPa South 0.9mph /  1.4km/h 1.0mph /  1.6km/h 84% 0.00in /  0mm 0.0 W/m2
23:42 64.0 °F /  17.8 °C 59.2 °F /  15.1 °C 29.78in /  1008.4hPa SSW 0.9mph /  1.4km/h 4.0mph /  6.4km/h 84% 0.00in /  0mm 0.0 W/m2
23:48 64.0 °F /  17.8 °C 58.8 °F /  14.9 °C 29.78in /  1008.4hPa Calm   1.0mph /  1.6km/h 83% 0.00in /  0mm 0.0 W/m2
23:54 64.0 °F /  17.8 °C 58.8 °F /  14.9 °C 29.78in /  1008.4hPa Calm   2.0mph /  3.2km/h 83% 0.00in /  0mm 0.0 W/m2
Olympia, Windhoek, Namibia
Compliments of Weather Underground - 3 mb